createdAt,value
2023-03-19T00:01:18.912Z,55.72
2023-03-19T00:06:12.236Z,56.05
2023-03-19T00:11:09.975Z,56.19
2023-03-19T00:16:02.991Z,56.17
2023-03-19T00:20:55.791Z,56.37
2023-03-19T00:25:48.609Z,56.14
2023-03-19T00:30:41.490Z,56.26
2023-03-19T00:35:36.506Z,56.41
2023-03-19T00:40:29.642Z,56.73
2023-03-19T00:45:22.919Z,56.81
2023-03-19T00:50:15.820Z,57.13
2023-03-19T00:55:09.019Z,57.12
2023-03-19T01:00:02.135Z,57.08
2023-03-19T01:04:55.138Z,57.11
2023-03-19T01:09:48.431Z,57.56
2023-03-19T01:14:41.365Z,57.71
2023-03-19T01:19:35.389Z,57.83
2023-03-19T01:24:33.993Z,57.99
2023-03-19T01:29:27.208Z,58.22
2023-03-19T01:34:21.790Z,58.43
2023-03-19T01:39:19.350Z,58.71
2023-03-19T01:44:35.215Z,58.60
2023-03-19T01:50:05.285Z,59.09
2023-03-19T01:55:02.000Z,58.97
2023-03-19T02:00:16.313Z,59.12
2023-03-19T02:05:15.800Z,59.28
2023-03-19T02:10:15.459Z,59.27
2023-03-19T02:15:09.474Z,59.50
2023-03-19T02:20:21.187Z,59.67
2023-03-19T02:25:26.340Z,59.60
2023-03-19T02:30:38.031Z,59.58
2023-03-19T02:35:36.460Z,60.06
2023-03-19T02:40:33.597Z,60.04
2023-03-19T02:45:32.204Z,59.97
2023-03-19T02:50:25.855Z,60.11
2023-03-19T02:55:19.615Z,60.22
2023-03-19T03:00:13.557Z,60.37
2023-03-19T03:05:09.307Z,60.60
2023-03-19T03:10:03.450Z,60.48
2023-03-19T03:14:56.799Z,60.51
2023-03-19T03:19:49.695Z,60.90
2023-03-19T03:24:42.730Z,60.69
2023-03-19T03:29:36.883Z,61.16
2023-03-19T03:34:29.700Z,60.93
2023-03-19T03:39:22.646Z,61.32
2023-03-19T03:44:15.542Z,61.25
2023-03-19T03:49:08.845Z,61.48
2023-03-19T03:54:01.704Z,61.78
2023-03-19T03:58:55.884Z,61.93
2023-03-19T04:03:49.606Z,61.95
2023-03-19T04:08:42.602Z,62.04
2023-03-19T04:13:37.133Z,62.59
2023-03-19T04:18:30.390Z,62.62
2023-03-19T04:23:23.322Z,62.43
2023-03-19T04:28:16.117Z,62.64
2023-03-19T04:33:10.964Z,62.49
2023-03-19T04:38:05.612Z,62.70
2023-03-19T04:42:58.611Z,62.93
2023-03-19T04:47:59.249Z,62.99
2023-03-19T04:52:53.020Z,62.98
2023-03-19T04:57:46.579Z,62.87
2023-03-19T05:02:40.328Z,63.19
2023-03-19T05:07:34.427Z,63.14
2023-03-19T05:12:28.559Z,63.30
2023-03-19T05:17:22.644Z,63.26
2023-03-19T05:22:22.544Z,63.40
2023-03-19T05:27:15.461Z,63.30
2023-03-19T05:32:30.886Z,63.81
2023-03-19T05:37:27.839Z,63.61
2023-03-19T05:42:25.575Z,63.59
2023-03-19T05:47:21.500Z,63.77
2023-03-19T05:52:20.016Z,63.63
2023-03-19T05:57:13.853Z,63.75
2023-03-19T06:02:22.113Z,63.52
2023-03-19T06:07:16.450Z,63.68
2023-03-19T06:12:09.651Z,63.84
2023-03-19T06:17:17.651Z,63.50
2023-03-19T06:22:12.190Z,63.17
2023-03-19T06:27:06.372Z,62.62
2023-03-19T06:32:00.760Z,62.09
2023-03-19T06:37:05.827Z,61.79
2023-03-19T06:41:59.027Z,61.31
2023-03-19T06:46:53.257Z,60.74
2023-03-19T06:51:46.873Z,60.35
2023-03-19T06:56:39.680Z,60.19
2023-03-19T07:01:32.985Z,59.15
2023-03-19T07:06:25.981Z,58.54
2023-03-19T07:11:19.031Z,57.91
2023-03-19T07:16:11.894Z,56.96
2023-03-19T07:21:05.083Z,56.55
2023-03-19T07:25:58.781Z,55.77
2023-03-19T07:30:55.205Z,55.01
2023-03-19T07:35:48.589Z,53.71
2023-03-19T07:40:51.277Z,52.65
2023-03-19T07:45:52.161Z,52.43
2023-03-19T07:50:45.145Z,51.52
2023-03-19T07:55:38.563Z,47.89
2023-03-19T08:00:31.575Z,43.89
2023-03-19T08:05:24.531Z,41.99
2023-03-19T08:10:18.044Z,40.36
2023-03-19T08:15:12.821Z,40.52
2023-03-19T08:20:12.591Z,39.51
2023-03-19T08:25:07.213Z,37.32
2023-03-19T08:30:00.111Z,36.36
2023-03-19T08:34:53.030Z,35.86
2023-03-19T08:39:46.007Z,34.52
2023-03-19T08:44:38.933Z,35.17
2023-03-19T08:49:31.910Z,35.64
2023-03-19T08:54:24.802Z,35.95
2023-03-19T08:59:18.215Z,36.33
2023-03-19T09:04:11.308Z,36.58
2023-03-19T09:09:04.507Z,36.92
2023-03-19T09:13:57.730Z,36.78
2023-03-19T09:18:50.589Z,37.14
2023-03-19T09:23:43.536Z,36.41
2023-03-19T09:28:38.233Z,36.42
2023-03-19T09:33:31.115Z,36.17
2023-03-19T09:38:24.119Z,36.64
2023-03-19T09:43:43.628Z,36.40
2023-03-19T09:48:51.835Z,36.29
2023-03-19T09:54:01.417Z,35.99
2023-03-19T09:58:54.291Z,36.68
2023-03-19T10:04:09.352Z,36.39
2023-03-19T10:09:17.634Z,35.37
2023-03-19T10:14:55.664Z,34.70
2023-03-19T10:20:10.986Z,33.30
2023-03-19T10:25:05.767Z,31.73
2023-03-19T10:29:58.733Z,30.27
2023-03-19T10:34:54.064Z,28.99
2023-03-19T10:39:49.003Z,28.76
2023-03-19T10:44:52.208Z,27.64
2023-03-19T10:49:45.161Z,26.61
2023-03-19T10:54:41.811Z,26.62
2023-03-19T10:59:39.310Z,25.90
2023-03-19T11:04:32.461Z,25.10
2023-03-19T11:09:39.150Z,25.38
2023-03-19T11:14:45.506Z,25.59
2023-03-19T11:19:43.004Z,25.06
2023-03-19T11:24:41.772Z,25.71
2023-03-19T11:29:41.804Z,26.69
2023-03-19T11:35:01.533Z,27.11
2023-03-19T11:40:25.438Z,27.27
2023-03-19T11:45:33.685Z,27.33
2023-03-19T11:50:57.057Z,28.15
2023-03-19T11:56:21.566Z,28.59
2023-03-19T12:01:45.271Z,29.38
2023-03-19T12:06:47.894Z,29.57
2023-03-19T12:11:46.591Z,29.38
2023-03-19T12:16:51.998Z,29.93
2023-03-19T12:21:57.312Z,30.85
2023-03-19T12:27:22.161Z,30.62
2023-03-19T12:32:18.654Z,30.93
2023-03-19T12:37:15.059Z,31.25
2023-03-19T12:42:16.555Z,31.36
2023-03-19T12:47:22.631Z,31.15
2023-03-19T12:52:28.248Z,31.57
2023-03-19T12:57:38.844Z,31.27
2023-03-19T13:02:48.042Z,31.45
2023-03-19T13:08:01.185Z,31.87
2023-03-19T13:12:56.345Z,32.08
2023-03-19T13:18:32.522Z,31.74
2023-03-19T13:23:35.133Z,32.04
2023-03-19T13:28:32.415Z,32.45
2023-03-19T13:33:25.747Z,32.96
2023-03-19T13:38:22.221Z,32.91
2023-03-19T13:43:28.844Z,32.37
2023-03-19T13:48:28.786Z,32.19
2023-03-19T13:53:37.810Z,32.53
2023-03-19T13:58:49.040Z,32.31
2023-03-19T14:04:13.083Z,32.86
2023-03-19T14:09:08.741Z,32.95
2023-03-19T14:14:06.695Z,33.02
2023-03-19T14:19:03.048Z,33.20
2023-03-19T14:23:57.787Z,33.72
2023-03-19T14:29:02.674Z,34.58
2023-03-19T14:34:02.821Z,34.02
2023-03-19T14:39:00.551Z,33.68
2023-03-19T14:44:12.199Z,34.00
2023-03-19T14:49:57.596Z,33.96
2023-03-19T14:55:10.908Z,33.96
2023-03-19T15:00:10.130Z,34.34
2023-03-19T15:05:25.056Z,34.14
2023-03-19T15:10:21.558Z,34.74
2023-03-19T15:15:32.993Z,34.84
2023-03-19T15:20:26.732Z,34.88
2023-03-19T15:25:19.653Z,35.12
2023-03-19T15:30:28.853Z,35.23
2023-03-19T15:35:26.049Z,35.76
2023-03-19T15:40:21.113Z,36.11
2023-03-19T15:45:19.483Z,36.84
2023-03-19T15:50:20.580Z,37.35
2023-03-19T15:55:15.787Z,38.44
2023-03-19T16:00:11.523Z,39.13
2023-03-19T16:05:21.820Z,40.28
2023-03-19T16:10:36.273Z,40.46
2023-03-19T16:15:45.118Z,41.24
2023-03-19T16:20:47.179Z,41.96
2023-03-19T16:25:40.706Z,43.32
2023-03-19T16:30:33.757Z,43.89
2023-03-19T16:35:30.469Z,44.34
2023-03-19T16:40:24.090Z,44.47
2023-03-19T16:45:16.891Z,44.62
2023-03-19T16:50:10.583Z,44.86
2023-03-19T16:55:05.646Z,45.08
2023-03-19T16:59:59.507Z,45.45
2023-03-19T17:04:52.367Z,46.32
2023-03-19T17:09:45.135Z,46.54
2023-03-19T17:14:38.704Z,46.65
2023-03-19T17:19:37.210Z,47.12
2023-03-19T17:24:35.387Z,47.63
2023-03-19T17:29:28.380Z,47.91
2023-03-19T17:34:25.508Z,48.36
2023-03-19T17:39:18.715Z,48.66
2023-03-19T17:44:11.508Z,49.17
2023-03-19T17:49:04.370Z,49.53
2023-03-19T17:53:57.197Z,49.64
2023-03-19T17:58:50.576Z,50.03
2023-03-19T18:03:43.842Z,50.49
2023-03-19T18:08:36.685Z,50.75
2023-03-19T18:13:29.459Z,51.05
2023-03-19T18:18:22.892Z,51.30
2023-03-19T18:23:16.898Z,51.39
2023-03-19T18:28:09.823Z,51.74
2023-03-19T18:33:05.888Z,52.08
2023-03-19T18:37:59.290Z,52.15
2023-03-19T18:42:52.592Z,52.36
2023-03-19T18:47:48.261Z,52.51
2023-03-19T18:52:41.089Z,52.62
2023-03-19T18:57:52.898Z,52.83
2023-03-19T19:02:47.700Z,52.88
2023-03-19T19:07:40.477Z,53.07
2023-03-19T19:12:33.268Z,53.20
2023-03-19T19:17:29.353Z,53.44
2023-03-19T19:22:22.150Z,53.63
2023-03-19T19:27:21.306Z,53.79
2023-03-19T19:32:36.589Z,54.08
2023-03-19T19:37:29.431Z,54.34
2023-03-19T19:42:23.940Z,54.39
2023-03-19T19:47:17.470Z,54.78
2023-03-19T19:52:20.279Z,54.78
2023-03-19T19:57:23.008Z,54.82
2023-03-19T20:02:21.960Z,54.91
2023-03-19T20:07:14.786Z,55.10
2023-03-19T20:12:20.840Z,55.25
2023-03-19T20:17:22.170Z,55.66
2023-03-19T20:22:15.006Z,55.68
2023-03-19T20:27:17.008Z,55.95
2023-03-19T20:32:27.464Z,56.30
2023-03-19T20:37:20.261Z,56.34
2023-03-19T20:42:16.737Z,56.66
2023-03-19T20:47:17.656Z,56.65
2023-03-19T20:52:12.326Z,56.88
2023-03-19T20:57:05.210Z,57.11
2023-03-19T21:01:58.475Z,57.50
2023-03-19T21:06:53.669Z,57.49
2023-03-19T21:11:47.560Z,57.70
2023-03-19T21:16:40.872Z,57.91
2023-03-19T21:21:36.866Z,58.12
2023-03-19T21:26:29.886Z,58.12
2023-03-19T21:31:23.011Z,58.30
2023-03-19T21:36:16.984Z,58.66
2023-03-19T21:41:28.954Z,58.72
2023-03-19T21:46:26.285Z,58.79
2023-03-19T21:51:19.239Z,58.90
2023-03-19T21:56:22.117Z,59.46
2023-03-19T22:01:20.813Z,59.37
2023-03-19T22:06:14.381Z,59.72
2023-03-19T22:11:17.345Z,59.80
2023-03-19T22:16:24.834Z,59.86
2023-03-19T22:21:23.665Z,59.80
2023-03-19T22:26:22.528Z,59.90
2023-03-19T22:31:15.522Z,60.21
2023-03-19T22:36:08.898Z,60.35
2023-03-19T22:41:02.454Z,60.49
2023-03-19T22:45:58.652Z,60.66
2023-03-19T22:50:52.405Z,60.71
2023-03-19T22:55:45.314Z,60.91
2023-03-19T23:00:38.530Z,60.95
2023-03-19T23:05:38.177Z,61.37
2023-03-19T23:10:33.656Z,61.63
2023-03-19T23:15:30.964Z,61.54
2023-03-19T23:20:25.545Z,61.75
2023-03-19T23:25:26.210Z,61.75
2023-03-19T23:30:26.368Z,61.87
2023-03-19T23:35:22.450Z,61.91
2023-03-19T23:40:17.723Z,62.48
2023-03-19T23:45:27.364Z,62.46
2023-03-19T23:50:20.139Z,62.65
2023-03-19T23:55:13.391Z,62.64
